Time;durP1;ratioP1;P1;durP2;ratioP2;P2;SDS_P1;SDS_P2;PMS_P1;PMS_P2;Temp;Humidity;BMP_temperature;BMP_pressure;BME280_temperature;BME280_humidity;BME280_pressure;Samples;Min_cycle;Max_cycle;Signal;HPM_P1;HPM_P2
2021/09/18 00:01:45;;;;;;;12.85;5.80;;;;;;;;;;10541482;28;20127;-72
2021/09/18 00:11:59;;;;;;;14.20;6.05;;;;;;;;;;10538565;28;20145;-71
2021/09/18 00:17:02;;;;;;;12.73;5.78;;;;;;;;;;10532808;28;20057;-73
2021/09/18 00:22:05;;;;;;;14.93;6.18;;;;;;;;;;10549703;28;20044;-73
2021/09/18 00:27:10;;;;;;;14.00;6.03;;;;;;;;;;10546729;28;20051;-73
2021/09/18 00:32:12;;;;;;;15.65;6.00;;;;;;;;;;10540787;28;20489;-70
2021/09/18 00:37:15;;;;;;;17.13;6.13;;;;;;;;;;10547169;28;21667;-72
2021/09/18 00:42:19;;;;;;;16.33;6.18;;;;;;;;;;10547655;28;20104;-70
2021/09/18 00:47:22;;;;;;;12.32;6.18;;;;;;;;;;10544236;28;20372;-71
2021/09/18 00:52:25;;;;;;;12.95;5.68;;;;;;;;;;10548745;28;20473;-73
2021/09/18 00:57:30;;;;;;;15.10;5.95;;;;;;;;;;10538684;28;20499;-71
2021/09/18 01:02:33;;;;;;;15.38;6.20;;;;;;;;;;10539746;28;20066;-73
2021/09/18 01:07:37;;;;;;;16.48;6.53;;;;;;;;;;10547899;28;20414;-70
2021/09/18 01:13:00;;;;;;;15.47;6.50;;;;;;;;;;10558777;28;20035;-73
2021/09/18 01:18:04;;;;;;;11.83;5.70;;;;;;;;;;10550983;28;20043;-72
2021/09/18 01:23:08;;;;;;;12.93;5.88;;;;;;;;;;10540084;28;20050;-72
2021/09/18 01:28:18;;;;;;;13.30;6.05;;;;;;;;;;10550089;28;20112;-72
2021/09/18 01:33:21;;;;;;;15.30;6.15;;;;;;;;;;10554065;28;20511;-72
2021/09/18 01:38:24;;;;;;;14.33;6.07;;;;;;;;;;10550608;28;20101;-70
2021/09/18 01:43:29;;;;;;;15.20;5.93;;;;;;;;;;10555340;28;20111;-72
2021/09/18 01:48:32;;;;;;;14.55;6.18;;;;;;;;;;10554962;28;20038;-72
2021/09/18 01:53:35;;;;;;;12.90;5.13;;;;;;;;;;10555074;28;20039;-73
2021/09/18 01:58:39;;;;;;;13.05;6.00;;;;;;;;;;10553333;28;20419;-72
2021/09/18 02:03:42;;;;;;;13.13;5.43;;;;;;;;;;10562435;28;20097;-72
2021/09/18 02:08:45;;;;;;;12.73;5.93;;;;;;;;;;10554073;28;20104;-71
2021/09/18 02:14:06;;;;;;;12.63;5.55;;;;;;;;;;10562480;28;20087;-72
2021/09/18 02:19:09;;;;;;;13.82;5.78;;;;;;;;;;10563206;28;20048;-73
2021/09/18 02:24:12;;;;;;;13.35;5.90;;;;;;;;;;10557146;28;20054;-73
2021/09/18 02:29:17;;;;;;;16.65;5.63;;;;;;;;;;10560843;28;20480;-73
2021/09/18 02:34:19;;;;;;;15.88;5.90;;;;;;;;;;10558576;28;20065;-72
2021/09/18 02:39:22;;;;;;;15.75;6.05;;;;;;;;;;10548815;28;20074;-73
2021/09/18 02:44:26;;;;;;;13.00;5.72;;;;;;;;;;10567527;28;20466;-72
2021/09/18 02:49:29;;;;;;;12.60;5.70;;;;;;;;;;10553778;28;20039;-72
2021/09/18 02:54:32;;;;;;;14.18;6.30;;;;;;;;;;10566774;28;20114;-72
2021/09/18 02:59:37;;;;;;;12.80;6.07;;;;;;;;;;10557603;28;20054;-72
2021/09/18 03:04:40;;;;;;;13.07;5.70;;;;;;;;;;10555326;28;20040;-72
2021/09/18 03:09:43;;;;;;;11.88;5.00;;;;;;;;;;10550555;28;20047;-71
2021/09/18 03:14:47;;;;;;;16.20;6.35;;;;;;;;;;10553632;28;20046;-72
2021/09/18 03:19:51;;;;;;;12.63;5.28;;;;;;;;;;10555847;28;20126;-70
2021/09/18 03:24:54;;;;;;;13.98;6.25;;;;;;;;;;10555130;28;20039;-72
2021/09/18 03:29:58;;;;;;;15.20;5.47;;;;;;;;;;10560675;28;20043;-71
2021/09/18 03:35:01;;;;;;;11.80;5.50;;;;;;;;;;10563106;28;20105;-72
2021/09/18 03:40:05;;;;;;;16.03;5.97;;;;;;;;;;10554458;28;20138;-73
2021/09/18 03:45:08;;;;;;;;;;;;;;;;;;10553024;28;20069;-72
2021/09/18 03:50:12;;;;;;;14.23;5.35;;;;;;;;;;10556279;28;20030;-73
2021/09/18 03:55:15;;;;;;;11.55;5.32;;;;;;;;;;10555358;28;20055;-74
2021/09/18 04:00:18;;;;;;;13.40;5.68;;;;;;;;;;10551999;28;20039;-72
2021/09/18 04:05:23;;;;;;;13.20;5.75;;;;;;;;;;10554107;28;20055;-73
2021/09/18 04:10:25;;;;;;;15.98;5.57;;;;;;;;;;10550860;28;20040;-74
2021/09/18 04:15:29;;;;;;;12.35;5.40;;;;;;;;;;10553985;28;20389;-75
2021/09/18 04:20:33;;;;;;;14.13;6.20;;;;;;;;;;10571073;27;20073;-73
2021/09/18 04:25:36;;;;;;;14.27;5.75;;;;;;;;;;10552486;28;20084;-72
2021/09/18 04:30:39;;;;;;;14.53;6.00;;;;;;;;;;10557122;28;20035;-74
2021/09/18 04:35:43;;;;;;;16.17;6.10;;;;;;;;;;10556104;28;20047;-73
2021/09/18 04:40:46;;;;;;;14.50;6.15;;;;;;;;;;10560993;28;20517;-74
2021/09/18 04:45:49;;;;;;;15.05;6.20;;;;;;;;;;10565600;28;20035;-73
2021/09/18 04:50:53;;;;;;;13.40;5.90;;;;;;;;;;10547723;28;20048;-73
2021/09/18 04:55:56;;;;;;;12.63;5.03;;;;;;;;;;10551692;28;20112;-71
2021/09/18 05:01:01;;;;;;;13.52;5.70;;;;;;;;;;10559239;28;20067;-71
2021/09/18 05:06:05;;;;;;;13.00;5.10;;;;;;;;;;10552845;28;20115;-72
2021/09/18 05:11:08;;;;;;;9.85;4.65;;;;;;;;;;10554551;28;20100;-71
2021/09/18 05:16:11;;;;;;;8.05;3.78;;;;;;;;;;10555471;28;20036;-72
2021/09/18 05:21:15;;;;;;;8.40;3.07;;;;;;;;;;10551755;28;20046;-72
2021/09/18 05:26:18;;;;;;;8.32;4.22;;;;;;;;;;10542431;28;20036;-71
2021/09/18 05:31:21;;;;;;;9.23;4.40;;;;;;;;;;10552184;28;20695;-72
2021/09/18 05:36:26;;;;;;;13.60;4.60;;;;;;;;;;10558146;28;20159;-73
2021/09/18 05:41:29;;;;;;;10.95;4.55;;;;;;;;;;10554413;28;20454;-71
2021/09/18 05:46:31;;;;;;;11.85;4.50;;;;;;;;;;10564631;27;20059;-72
2021/09/18 05:51:36;;;;;;;8.63;4.27;;;;;;;;;;10560302;28;20058;-73
2021/09/18 05:56:39;;;;;;;13.60;5.22;;;;;;;;;;10562919;28;21006;-72
2021/09/18 06:01:42;;;;;;;11.48;5.18;;;;;;;;;;10562938;28;20284;-72
2021/09/18 06:06:46;;;;;;;12.90;6.00;;;;;;;;;;10550653;28;20039;-72
2021/09/18 06:11:49;;;;;;;11.27;5.00;;;;;;;;;;10558878;28;20067;-71
2021/09/18 06:16:52;;;;;;;10.38;4.95;;;;;;;;;;10563369;28;20058;-71
2021/09/18 06:21:57;;;;;;;11.63;5.07;;;;;;;;;;10548806;27;20093;-72
2021/09/18 06:27:00;;;;;;;10.60;4.50;;;;;;;;;;10556283;28;20044;-72
2021/09/18 06:32:07;;;;;;;10.63;4.88;;;;;;;;;;10550476;28;20471;-72
2021/09/18 06:37:11;;;;;;;11.77;5.45;;;;;;;;;;10555793;28;20093;-70
2021/09/18 06:42:14;;;;;;;10.27;5.00;;;;;;;;;;10559717;28;20058;-71
2021/09/18 06:47:17;;;;;;;14.67;6.53;;;;;;;;;;10554904;28;20457;-71
2021/09/18 06:52:21;;;;;;;11.88;6.40;;;;;;;;;;10560484;28;20307;-72
2021/09/18 06:57:24;;;;;;;12.07;6.45;;;;;;;;;;10570040;27;20184;-70
2021/09/18 07:02:27;;;;;;;;;;;;;;;;;;10556541;28;20039;-72
2021/09/18 07:07:31;;;;;;;12.07;6.32;;;;;;;;;;10543895;28;19919;-71
2021/09/18 07:12:35;;;;;;;13.13;6.97;;;;;;;;;;10555285;28;20039;-69
2021/09/18 07:17:38;;;;;;;12.77;7.32;;;;;;;;;;10557949;28;20052;-72
2021/09/18 07:22:44;;;;;;;11.70;6.60;;;;;;;;;;10554575;28;20348;-71
2021/09/18 07:27:47;;;;;;;11.18;6.20;;;;;;;;;;10565611;28;20127;-71
2021/09/18 07:32:50;;;;;;;9.43;6.97;;;;;;;;;;10554589;28;20054;-72
2021/09/18 07:37:54;;;;;;;13.60;6.70;;;;;;;;;;10554990;28;20082;-73
2021/09/18 07:42:57;;;;;;;9.77;7.32;;;;;;;;;;10559588;28;20052;-70
2021/09/18 07:48:00;;;;;;;8.10;6.38;;;;;;;;;;10554948;28;20130;-73
2021/09/18 07:53:04;;;;;;;7.80;6.20;;;;;;;;;;10551959;28;20142;-70
2021/09/18 07:58:11;;;;;;;9.52;6.13;;;;;;;;;;10567896;28;20047;-72
2021/09/18 08:03:15;;;;;;;8.02;6.40;;;;;;;;;;10560609;28;20459;-72
2021/09/18 08:08:20;;;;;;;7.50;5.68;;;;;;;;;;10550813;28;20118;-71
2021/09/18 08:13:23;;;;;;;10.77;5.70;;;;;;;;;;10555635;28;20115;-72
2021/09/18 08:18:25;;;;;;;7.50;6.13;;;;;;;;;;10553170;28;20113;-72
2021/09/18 08:23:30;;;;;;;7.90;6.03;;;;;;;;;;10560592;28;20057;-71
2021/09/18 08:28:33;;;;;;;7.35;6.18;;;;;;;;;;10550938;28;20380;-72
2021/09/18 08:33:36;;;;;;;7.60;6.28;;;;;;;;;;10548876;28;20051;-72
2021/09/18 08:38:40;;;;;;;9.98;6.30;;;;;;;;;;10561973;28;20039;-72
2021/09/18 08:43:43;;;;;;;8.07;7.07;;;;;;;;;;10559778;28;20114;-72
2021/09/18 08:48:47;;;;;;;8.23;6.38;;;;;;;;;;10560075;28;20134;-72
2021/09/18 08:53:51;;;;;;;14.93;12.15;;;;;;;;;;10553911;28;20138;-72
2021/09/18 08:58:54;;;;;;;8.50;6.25;;;;;;;;;;10558544;28;20039;-72
2021/09/18 09:03:57;;;;;;;7.20;5.70;;;;;;;;;;10563810;28;20036;-71
2021/09/18 09:09:02;;;;;;;6.78;5.65;;;;;;;;;;10571924;28;20407;-71
2021/09/18 09:14:08;;;;;;;7.68;5.75;;;;;;;;;;10573942;28;20112;-71
2021/09/18 09:19:14;;;;;;;7.45;5.55;;;;;;;;;;10570041;28;20047;-69
2021/09/18 09:24:19;;;;;;;6.75;5.28;;;;;;;;;;10566954;28;20107;-70
2021/09/18 09:29:39;;;;;;;5.55;4.57;;;;;;;;;;10560748;28;20337;-72
2021/09/18 09:34:41;;;;;;;7.78;6.97;;;;;;;;;;10572528;28;20031;-71
2021/09/18 09:39:50;;;;;;;4.95;4.07;;;;;;;;;;10565184;28;20043;-71
2021/09/18 09:44:53;;;;;;;4.07;3.67;;;;;;;;;;10569567;28;20043;-69
2021/09/18 09:49:57;;;;;;;5.80;3.28;;;;;;;;;;10568343;28;20077;-71
2021/09/18 09:55:08;;;;;;;3.65;3.30;;;;;;;;;;10567347;28;20096;-72
2021/09/18 10:00:12;;;;;;;3.22;2.92;;;;;;;;;;10558692;28;20040;-72
2021/09/18 10:05:15;;;;;;;3.45;3.15;;;;;;;;;;10570558;28;20712;-71
2021/09/18 10:10:19;;;;;;;3.33;2.58;;;;;;;;;;10565689;28;20048;-72
2021/09/18 10:15:24;;;;;;;3.50;2.63;;;;;;;;;;10571215;28;20055;-73
2021/09/18 10:25:49;;;;;;;3.40;3.10;;;;;;;;;;10532730;28;20051;-71
2021/09/18 10:30:53;;;;;;;3.80;2.70;;;;;;;;;;10570372;28;20071;-72
2021/09/18 10:35:57;;;;;;;3.33;2.97;;;;;;;;;;10569963;28;20035;-72
2021/09/18 10:41:03;;;;;;;3.30;3.00;;;;;;;;;;10561959;28;20040;-72
2021/09/18 10:46:07;;;;;;;3.10;2.80;;;;;;;;;;10564405;28;20415;-72
2021/09/18 10:51:29;;;;;;;3.35;2.80;;;;;;;;;;10567899;28;20047;-72
2021/09/18 10:56:51;;;;;;;6.55;2.40;;;;;;;;;;10562692;28;20109;-72
2021/09/18 11:02:15;;;;;;;4.18;2.20;;;;;;;;;;10565323;28;20048;-71
2021/09/18 11:07:33;;;;;;;2.20;2.03;;;;;;;;;;10566253;28;20127;-73
2021/09/18 11:12:41;;;;;;;2.33;2.13;;;;;;;;;;10567044;28;20205;-71
2021/09/18 11:17:45;;;;;;;2.78;2.50;;;;;;;;;;10563680;28;20036;-70
2021/09/18 11:22:53;;;;;;;2.45;2.25;;;;;;;;;;10564089;28;20076;-70
2021/09/18 11:28:03;;;;;;;2.50;2.30;;;;;;;;;;10560846;28;20039;-71
2021/09/18 11:33:07;;;;;;;2.67;2.20;;;;;;;;;;10562223;28;20145;-71
2021/09/18 11:38:10;;;;;;;2.80;2.60;;;;;;;;;;10555235;28;20119;-72
2021/09/18 11:43:13;;;;;;;2.78;2.58;;;;;;;;;;10561443;28;20043;-71
2021/09/18 11:48:21;;;;;;;3.08;2.50;;;;;;;;;;10566405;28;20442;-70
2021/09/18 11:53:24;;;;;;;2.75;2.55;;;;;;;;;;10564055;28;20047;-71
2021/09/18 11:58:28;;;;;;;3.22;2.38;;;;;;;;;;10561857;28;20452;-67
2021/09/18 12:03:34;;;;;;;6.93;5.25;;;;;;;;;;10561133;28;20047;-70
2021/09/18 12:08:38;;;;;;;2.75;2.40;;;;;;;;;;10558132;28;20043;-70
2021/09/18 12:13:42;;;;;;;3.10;2.70;;;;;;;;;;10560648;28;20491;-70
2021/09/18 12:18:47;;;;;;;4.75;2.83;;;;;;;;;;10561148;28;20054;-71
2021/09/18 12:23:54;;;;;;;2.97;2.67;;;;;;;;;;10562504;28;20152;-70
2021/09/18 12:29:04;;;;;;;2.83;2.63;;;;;;;;;;10561686;28;20104;-70
2021/09/18 12:34:09;;;;;;;3.40;2.40;;;;;;;;;;10563603;28;20131;-71
2021/09/18 12:39:13;;;;;;;3.30;2.40;;;;;;;;;;10559365;28;20043;-71
2021/09/18 12:44:19;;;;;;;2.75;2.00;;;;;;;;;;10564412;28;20409;-69
2021/09/18 12:49:24;;;;;;;3.33;1.70;;;;;;;;;;10558127;28;20047;-71
2021/09/18 12:54:28;;;;;;;3.65;2.20;;;;;;;;;;10560148;28;20048;-72
2021/09/18 12:59:40;;;;;;;5.45;2.20;;;;;;;;;;10562683;28;20044;-69
2021/09/18 13:04:44;;;;;;;2.45;1.80;;;;;;;;;;10547755;28;20085;-73
2021/09/18 13:09:56;;;;;;;2.30;1.80;;;;;;;;;;10562347;28;20190;-74
2021/09/18 13:14:59;;;;;;;3.15;2.10;;;;;;;;;;10556984;28;20059;-71
2021/09/18 13:20:05;;;;;;;3.55;2.10;;;;;;;;;;10559675;28;20421;-71
2021/09/18 13:25:09;;;;;;;3.00;1.67;;;;;;;;;;10560436;28;20456;-71
2021/09/18 13:30:12;;;;;;;2.70;2.20;;;;;;;;;;10566606;28;20040;-71
2021/09/18 13:35:16;;;;;;;1.80;1.67;;;;;;;;;;10558413;28;20043;-71
2021/09/18 13:40:19;;;;;;;2.58;2.10;;;;;;;;;;10562233;28;20090;-71
2021/09/18 13:45:22;;;;;;;1.90;1.75;;;;;;;;;;10566335;28;20506;-70
2021/09/18 13:50:27;;;;;;;3.33;2.00;;;;;;;;;;10565096;28;20072;-71
2021/09/18 13:55:29;;;;;;;2.97;1.90;;;;;;;;;;10566630;28;20040;-72
2021/09/18 14:00:32;;;;;;;3.90;1.77;;;;;;;;;;10565924;28;20047;-71
2021/09/18 14:05:37;;;;;;;2.20;1.58;;;;;;;;;;10568549;28;20072;-71
2021/09/18 14:10:39;;;;;;;2.15;1.80;;;;;;;;;;10570439;28;20081;-72
2021/09/18 14:15:42;;;;;;;2.85;1.80;;;;;;;;;;10565698;28;20397;-70
2021/09/18 14:20:47;;;;;;;2.38;1.92;;;;;;;;;;10572644;28;20489;-72
2021/09/18 14:25:50;;;;;;;1.77;1.60;;;;;;;;;;10565411;28;20071;-72
2021/09/18 14:30:53;;;;;;;2.67;1.90;;;;;;;;;;10567935;28;20047;-72
2021/09/18 14:35:57;;;;;;;3.35;1.85;;;;;;;;;;10570778;28;20068;-72
2021/09/18 14:41:00;;;;;;;2.90;2.00;;;;;;;;;;10565173;27;20043;-71
2021/09/18 14:46:03;;;;;;;3.03;2.15;;;;;;;;;;10568423;28;20043;-72
2021/09/18 14:51:08;;;;;;;2.53;2.00;;;;;;;;;;10567949;28;20467;-72
2021/09/18 14:56:11;;;;;;;2.65;1.92;;;;;;;;;;10565265;28;20046;-72
2021/09/18 15:01:15;;;;;;;2.58;1.90;;;;;;;;;;10565656;28;20047;-72
2021/09/18 15:06:19;;;;;;;2.10;1.70;;;;;;;;;;10561633;28;20444;-72
2021/09/18 15:11:22;;;;;;;2.63;1.55;;;;;;;;;;10561410;28;20043;-71
2021/09/18 15:16:25;;;;;;;3.13;1.70;;;;;;;;;;10566937;28;20460;-72
2021/09/18 15:21:30;;;;;;;1.98;1.50;;;;;;;;;;10566888;28;20367;-72
2021/09/18 15:26:32;;;;;;;3.80;1.88;;;;;;;;;;10564941;28;20468;-71
2021/09/18 15:31:35;;;;;;;2.88;1.92;;;;;;;;;;10568357;28;20115;-71
2021/09/18 15:36:40;;;;;;;4.45;1.95;;;;;;;;;;10563052;28;20059;-71
2021/09/18 15:41:43;;;;;;;4.72;2.78;;;;;;;;;;10562860;28;20050;-71
2021/09/18 15:46:45;;;;;;;4.35;2.47;;;;;;;;;;10561680;28;20043;-71
2021/09/18 15:51:50;;;;;;;3.25;2.10;;;;;;;;;;10568441;28;20226;-71
2021/09/18 15:56:56;;;;;;;3.53;2.42;;;;;;;;;;10566274;28;20040;-72
2021/09/18 16:01:59;;;;;;;2.35;1.98;;;;;;;;;;10565285;28;20130;-73
2021/09/18 16:07:04;;;;;;;2.55;1.90;;;;;;;;;;10567320;28;20149;-71
2021/09/18 16:12:07;;;;;;;6.05;2.75;;;;;;;;;;10563229;28;20031;-71
2021/09/18 16:17:10;;;;;;;;;;;;;;;;;;10566951;28;20136;-71
2021/09/18 16:22:14;;;;;;;5.13;1.98;;;;;;;;;;10568173;28;19956;-71
2021/09/18 16:27:17;;;;;;;3.75;2.05;;;;;;;;;;10561032;28;20509;-72
2021/09/18 16:32:20;;;;;;;5.65;2.00;;;;;;;;;;10563965;28;20116;-71
2021/09/18 16:37:24;;;;;;;3.60;2.38;;;;;;;;;;10557339;28;20492;-71
2021/09/18 16:42:27;;;;;;;3.17;2.25;;;;;;;;;;10567511;28;20559;-71
2021/09/18 16:47:30;;;;;;;;;;;;;;;;;;10564334;28;20032;-72
2021/09/18 16:52:34;;;;;;;3.88;2.70;;;;;;;;;;10557393;28;19919;-71
2021/09/18 16:57:37;;;;;;;6.53;2.90;;;;;;;;;;10558561;28;20087;-71
2021/09/18 17:02:41;;;;;;;5.13;2.75;;;;;;;;;;10565645;28;20044;-72
2021/09/18 17:07:46;;;;;;;3.65;2.38;;;;;;;;;;10559044;28;20122;-71
2021/09/18 17:12:49;;;;;;;4.70;2.80;;;;;;;;;;10559922;28;20256;-71
2021/09/18 17:17:52;;;;;;;6.82;3.53;;;;;;;;;;10561365;28;20036;-71
2021/09/18 17:22:56;;;;;;;5.28;3.38;;;;;;;;;;10562797;28;20468;-70
2021/09/18 17:27:59;;;;;;;7.35;3.10;;;;;;;;;;10565203;28;20070;-72
2021/09/18 17:33:01;;;;;;;6.07;3.13;;;;;;;;;;10571491;28;20104;-72
2021/09/18 17:38:06;;;;;;;5.18;2.97;;;;;;;;;;10569517;28;20044;-72
2021/09/18 17:43:08;;;;;;;5.32;3.35;;;;;;;;;;10569447;28;20071;-71
2021/09/18 17:48:11;;;;;;;8.82;3.97;;;;;;;;;;10566419;28;20461;-71
2021/09/18 17:53:19;;;;;;;6.07;3.30;;;;;;;;;;10570963;28;20081;-71
2021/09/18 17:58:22;;;;;;;10.27;4.78;;;;;;;;;;10568067;28;20511;-72
2021/09/18 18:03:25;;;;;;;10.70;5.13;;;;;;;;;;10569724;28;20449;-72
2021/09/18 18:08:30;;;;;;;9.98;5.20;;;;;;;;;;10572277;28;20304;-72
2021/09/18 18:13:32;;;;;;;9.93;5.10;;;;;;;;;;10569567;28;20100;-72
2021/09/18 18:18:35;;;;;;;9.60;4.60;;;;;;;;;;10569937;28;20028;-72
2021/09/18 18:23:39;;;;;;;10.87;5.73;;;;;;;;;;10571659;28;20447;-72
2021/09/18 18:28:42;;;;;;;12.02;5.35;;;;;;;;;;10565841;28;20043;-70
2021/09/18 18:33:46;;;;;;;10.73;5.20;;;;;;;;;;10570911;28;20356;-72
2021/09/18 18:38:50;;;;;;;10.73;5.60;;;;;;;;;;10567325;28;20044;-71
2021/09/18 18:43:53;;;;;;;13.15;6.75;;;;;;;;;;10561617;28;20051;-71
2021/09/18 18:48:56;;;;;;;12.60;5.97;;;;;;;;;;10570160;28;20149;-72
2021/09/18 18:54:00;;;;;;;18.05;6.05;;;;;;;;;;10568646;28;20035;-73
2021/09/18 18:59:03;;;;;;;12.23;6.60;;;;;;;;;;10567929;28;20126;-74
2021/09/18 19:04:06;;;;;;;12.75;6.68;;;;;;;;;;10573195;28;20048;-72
2021/09/18 19:09:11;;;;;;;11.40;6.22;;;;;;;;;;10566703;28;20250;-70
2021/09/18 19:14:14;;;;;;;11.65;5.85;;;;;;;;;;10568399;28;20392;-71
2021/09/18 19:19:16;;;;;;;12.20;6.40;;;;;;;;;;10562123;28;20269;-71
2021/09/18 19:24:20;;;;;;;11.40;6.20;;;;;;;;;;10568099;28;20255;-71
2021/09/18 19:29:23;;;;;;;10.43;5.82;;;;;;;;;;10565217;28;20548;-71
2021/09/18 19:34:26;;;;;;;12.97;6.00;;;;;;;;;;10568064;28;20147;-69
2021/09/18 19:39:30;;;;;;;12.23;6.80;;;;;;;;;;10560053;28;20066;-71
2021/09/18 19:44:33;;;;;;;12.15;6.40;;;;;;;;;;10568678;28;20399;-71
2021/09/18 19:49:36;;;;;;;14.50;6.80;;;;;;;;;;10566334;28;20039;-73
2021/09/18 19:54:40;;;;;;;14.67;7.50;;;;;;;;;;10568386;28;20516;-74
2021/09/18 19:59:43;;;;;;;13.25;7.03;;;;;;;;;;10559910;28;20112;-73
2021/09/18 20:04:46;;;;;;;13.77;6.87;;;;;;;;;;10567782;28;20043;-71
2021/09/18 20:09:50;;;;;;;14.63;7.22;;;;;;;;;;10559153;28;20361;-72
2021/09/18 20:14:53;;;;;;;16.55;8.32;;;;;;;;;;10565469;28;20050;-72
2021/09/18 20:19:56;;;;;;;17.83;8.80;;;;;;;;;;10565475;28;20034;-71
2021/09/18 20:25:00;;;;;;;19.33;7.93;;;;;;;;;;10562593;28;20039;-72
2021/09/18 20:30:03;;;;;;;15.05;7.57;;;;;;;;;;10565597;28;20054;-70
2021/09/18 20:35:07;;;;;;;16.80;8.27;;;;;;;;;;10557146;28;20198;-71
2021/09/18 20:40:12;;;;;;;14.82;7.65;;;;;;;;;;10562556;28;20096;-72
2021/09/18 20:45:15;;;;;;;14.63;7.80;;;;;;;;;;10566767;28;20055;-72
2021/09/18 20:50:19;;;;;;;16.38;7.60;;;;;;;;;;10562794;28;20422;-73
2021/09/18 20:55:23;;;;;;;16.13;7.13;;;;;;;;;;10562156;28;20475;-72
2021/09/18 21:00:27;;;;;;;18.08;7.97;;;;;;;;;;10551843;28;20044;-72
2021/09/18 21:05:31;;;;;;;17.42;7.90;;;;;;;;;;10553886;28;20070;-72
2021/09/18 21:10:40;;;;;;;18.77;8.10;;;;;;;;;;10561421;28;20036;-73
2021/09/18 21:15:43;;;;;;;17.38;8.57;;;;;;;;;;10562217;28;20093;-73
2021/09/18 21:20:46;;;;;;;18.70;7.80;;;;;;;;;;10559418;28;20469;-73
2021/09/18 21:25:52;;;;;;;17.20;7.80;;;;;;;;;;10561227;28;20104;-71
2021/09/18 21:30:55;;;;;;;17.05;7.93;;;;;;;;;;10561684;28;20066;-71
2021/09/18 21:35:58;;;;;;;18.23;7.63;;;;;;;;;;10560010;28;20123;-72
2021/09/18 21:41:02;;;;;;;15.85;7.80;;;;;;;;;;10560351;28;20115;-72
2021/09/18 21:46:05;;;;;;;15.90;7.22;;;;;;;;;;10553547;28;20488;-72
2021/09/18 21:51:08;;;;;;;17.95;8.68;;;;;;;;;;10560524;28;20070;-72
2021/09/18 21:56:12;;;;;;;17.90;8.63;;;;;;;;;;10564343;28;20126;-70
2021/09/18 22:01:20;;;;;;;17.48;8.70;;;;;;;;;;10561693;28;20112;-71
2021/09/18 22:06:23;;;;;;;17.88;9.30;;;;;;;;;;10556122;28;20097;-72
2021/09/18 22:11:28;;;;;;;16.85;7.72;;;;;;;;;;10557404;28;20074;-72
2021/09/18 22:16:31;;;;;;;16.70;8.10;;;;;;;;;;10571081;28;20098;-71
2021/09/18 22:21:34;;;;;;;18.80;8.07;;;;;;;;;;10572848;28;20521;-72
2021/09/18 22:26:39;;;;;;;15.50;7.85;;;;;;;;;;10568016;28;20071;-72
2021/09/18 22:31:42;;;;;;;29.02;13.18;;;;;;;;;;10568627;28;20047;-73
2021/09/18 22:36:45;;;;;;;72.07;29.43;;;;;;;;;;10568779;28;20119;-72
2021/09/18 22:41:49;;;;;;;21.20;9.27;;;;;;;;;;10568135;28;20406;-71
2021/09/18 22:46:52;;;;;;;21.70;8.60;;;;;;;;;;10570107;28;20047;-70
2021/09/18 22:51:55;;;;;;;23.10;9.13;;;;;;;;;;10560521;28;20036;-72
2021/09/18 22:57:00;;;;;;;19.15;8.10;;;;;;;;;;10558202;28;20042;-72
2021/09/18 23:02:03;;;;;;;17.17;7.80;;;;;;;;;;10570001;28;20123;-72
2021/09/18 23:07:08;;;;;;;17.83;8.13;;;;;;;;;;10566064;28;20046;-70
2021/09/18 23:12:13;;;;;;;17.98;8.57;;;;;;;;;;10567593;28;20063;-71
2021/09/18 23:17:16;;;;;;;17.48;8.02;;;;;;;;;;10565529;28;20169;-72
2021/09/18 23:22:19;;;;;;;20.23;8.77;;;;;;;;;;10566968;28;20561;-72
2021/09/18 23:27:24;;;;;;;20.55;8.52;;;;;;;;;;10562426;28;20077;-71
2021/09/18 23:32:27;;;;;;;22.00;9.10;;;;;;;;;;10570086;28;20067;-71
2021/09/18 23:37:30;;;;;;;31.90;13.73;;;;;;;;;;10566336;28;20067;-72
2021/09/18 23:42:34;;;;;;;21.50;10.07;;;;;;;;;;10565700;28;20036;-72
2021/09/18 23:47:37;;;;;;;19.08;8.82;;;;;;;;;;10562842;28;20040;-70
2021/09/18 23:52:41;;;;;;;;;;;;;;;;;;10568704;28;20063;-73
2021/09/18 23:57:45;;;;;;;19.65;8.88;;;;;;;;;;10560013;28;20007;-72
